createdAt,value
2019-05-16T00:02:10.131Z,2.27
2019-05-16T00:04:59.233Z,2.77
2019-05-16T00:07:49.585Z,2.10
2019-05-16T00:10:38.490Z,2.50
2019-05-16T00:16:38.027Z,3.50
2019-05-16T00:19:28.758Z,2.75
2019-05-16T00:22:18.271Z,1.77
2019-05-16T00:25:09.373Z,1.55
2019-05-16T00:27:58.798Z,2.08
2019-05-16T00:30:48.882Z,2.15
2019-05-16T00:33:38.068Z,7.50
2019-05-16T00:36:28.360Z,2.00
2019-05-16T00:39:18.771Z,3.27
2019-05-16T00:42:08.844Z,4.42
2019-05-16T00:44:58.595Z,2.27
2019-05-16T00:47:48.972Z,2.20
2019-05-16T00:50:58.699Z,3.12
2019-05-16T00:53:48.296Z,2.65
2019-05-16T01:03:00.575Z,2.72
2019-05-16T01:05:49.393Z,3.00
2019-05-16T01:08:38.645Z,2.37
2019-05-16T01:11:28.781Z,3.17
2019-05-16T01:14:17.774Z,3.70
2019-05-16T01:17:08.573Z,2.50
2019-05-16T01:19:57.833Z,2.10
2019-05-16T01:22:48.995Z,2.35
2019-05-16T01:25:38.871Z,2.58
2019-05-16T01:28:28.863Z,1.92
2019-05-16T01:31:19.090Z,2.10
2019-05-16T01:34:08.273Z,3.00
2019-05-16T01:36:59.006Z,1.95
2019-05-16T01:39:48.404Z,3.83
2019-05-16T01:42:38.538Z,3.60
2019-05-16T01:45:28.817Z,2.50
2019-05-16T01:48:19.170Z,1.87
2019-05-16T01:51:08.232Z,3.47
2019-05-16T01:53:58.004Z,3.40
2019-05-16T01:56:48.098Z,2.35
2019-05-16T01:59:38.215Z,2.30
2019-05-16T02:02:28.961Z,2.40
2019-05-16T02:05:18.754Z,2.12
2019-05-16T02:08:08.845Z,2.85
2019-05-16T02:10:58.862Z,3.05
2019-05-16T02:13:48.474Z,1.72
2019-05-16T02:16:38.500Z,2.83
2019-05-16T02:19:27.984Z,2.10
2019-05-16T02:22:18.035Z,4.67
2019-05-16T02:28:25.931Z,4.30
2019-05-16T02:31:15.305Z,2.20
2019-05-16T02:34:04.946Z,3.08
2019-05-16T02:37:12.036Z,2.45
2019-05-16T02:39:44.406Z,3.42
2019-05-16T02:42:33.235Z,2.80
2019-05-16T02:45:24.486Z,3.58
2019-05-16T02:48:12.683Z,2.75
2019-05-16T02:51:02.078Z,3.50
2019-05-16T02:53:52.274Z,2.25
2019-05-16T02:56:41.913Z,1.80
2019-05-16T02:59:31.663Z,2.40
2019-05-16T03:02:20.799Z,4.95
2019-05-16T03:08:41.189Z,2.12
2019-05-16T03:11:31.462Z,1.77
2019-05-16T03:14:21.428Z,2.70
2019-05-16T03:20:46.249Z,1.57
2019-05-16T03:23:35.106Z,2.25
2019-05-16T03:26:23.989Z,6.15
2019-05-16T03:29:12.846Z,2.20
2019-05-16T03:32:03.108Z,4.40
2019-05-16T03:34:54.792Z,5.60
2019-05-16T03:37:54.960Z,4.92
2019-05-16T03:43:50.752Z,2.85
2019-05-16T03:46:41.336Z,2.62
2019-05-16T03:49:31.342Z,2.85
2019-05-16T03:52:20.740Z,3.12
2019-05-16T03:55:11.534Z,3.08
2019-05-16T03:58:01.649Z,2.60
2019-05-16T04:01:12.703Z,5.42
2019-05-16T04:03:54.162Z,4.28
2019-05-16T04:06:42.960Z,4.45
2019-05-16T04:09:31.803Z,2.52
2019-05-16T04:12:21.356Z,3.27
2019-05-16T04:15:11.818Z,5.50
2019-05-16T04:18:01.827Z,2.33
2019-05-16T04:20:52.427Z,5.00
2019-05-16T04:23:41.998Z,4.15
2019-05-16T04:26:35.781Z,4.03
2019-05-16T04:29:22.397Z,4.10
2019-05-16T04:32:11.232Z,3.17
2019-05-16T04:35:02.535Z,6.92
2019-05-16T04:37:51.454Z,2.52
2019-05-16T04:40:42.400Z,2.47
2019-05-16T04:43:31.927Z,3.40
2019-05-16T04:46:21.641Z,3.37
2019-05-16T04:49:11.573Z,4.05
2019-05-16T04:52:01.936Z,6.50
2019-05-16T04:54:51.318Z,3.02
2019-05-16T04:57:42.453Z,2.70
2019-05-16T05:00:32.116Z,5.65
2019-05-16T05:06:31.275Z,2.10
2019-05-16T05:09:20.964Z,3.33
2019-05-16T05:12:11.406Z,4.17
2019-05-16T05:15:01.224Z,2.87
2019-05-16T05:17:51.293Z,5.20
2019-05-16T05:20:41.064Z,3.17
2019-05-16T05:23:30.693Z,9.60
2019-05-16T05:26:19.975Z,4.72
2019-05-16T05:29:10.380Z,4.00
2019-05-16T05:32:04.198Z,4.70
2019-05-16T05:34:51.324Z,3.30
2019-05-16T05:37:41.060Z,2.58
2019-05-16T05:40:30.787Z,4.70
2019-05-16T05:43:21.539Z,3.17
2019-05-16T05:46:11.154Z,2.55
2019-05-16T05:49:00.917Z,2.43
2019-05-16T05:51:50.122Z,2.90
2019-05-16T05:54:40.841Z,3.13
2019-05-16T05:57:30.892Z,2.53
2019-05-16T06:03:34.353Z,3.60
2019-05-16T06:06:23.179Z,2.07
2019-05-16T06:09:25.317Z,3.23
2019-05-16T06:18:32.013Z,2.27
2019-05-16T06:21:20.839Z,2.40
2019-05-16T06:24:10.792Z,2.70
2019-05-16T06:27:00.962Z,1.87
2019-05-16T06:29:50.929Z,2.83
2019-05-16T06:36:10.819Z,3.37
2019-05-16T06:39:00.237Z,3.63
2019-05-16T06:41:50.936Z,3.87
2019-05-16T06:44:40.251Z,4.67
2019-05-16T06:47:30.619Z,2.73
2019-05-16T06:50:40.447Z,4.70
2019-05-16T06:53:29.911Z,3.90
2019-05-16T06:56:20.204Z,2.90
2019-05-16T06:59:10.564Z,2.90
2019-05-16T07:02:00.466Z,3.97
2019-05-16T07:04:42.571Z,4.90
2019-05-16T07:07:31.422Z,2.87
2019-05-16T07:10:20.569Z,3.93
2019-05-16T07:13:10.361Z,2.80
2019-05-16T07:16:00.697Z,1.80
2019-05-16T07:18:50.817Z,1.80
2019-05-16T07:21:41.177Z,2.40
2019-05-16T07:24:30.517Z,3.93
2019-05-16T07:27:21.913Z,2.60
2019-05-16T07:33:26.671Z,2.43
2019-05-16T07:36:16.008Z,1.40
2019-05-16T07:39:06.291Z,4.70
2019-05-16T07:41:55.143Z,1.83
2019-05-16T07:44:44.042Z,2.07
2019-05-16T07:47:32.896Z,5.00
2019-05-16T07:50:21.735Z,2.70
2019-05-16T07:53:10.774Z,1.60
2019-05-16T07:56:00.164Z,2.30
2019-05-16T07:58:50.829Z,1.93
2019-05-16T08:01:43.382Z,4.20
2019-05-16T08:04:31.476Z,2.80
2019-05-16T08:07:13.757Z,2.97
2019-05-16T08:09:43.324Z,2.80
2019-05-16T08:12:33.041Z,3.13
2019-05-16T08:15:23.198Z,2.13
2019-05-16T08:18:12.066Z,1.80
2019-05-16T08:21:01.570Z,2.57
2019-05-16T08:23:51.469Z,1.93
2019-05-16T08:26:43.041Z,1.80
2019-05-16T08:29:31.724Z,2.33
2019-05-16T08:35:12.118Z,1.70
2019-05-16T08:38:01.279Z,2.90
2019-05-16T08:41:06.146Z,2.67
2019-05-16T08:43:41.542Z,2.33
2019-05-16T08:46:32.410Z,1.70
2019-05-16T08:49:22.285Z,3.53
2019-05-16T08:52:12.401Z,6.03
2019-05-16T08:55:03.531Z,2.50
2019-05-16T08:57:52.925Z,3.57
2019-05-16T09:00:42.440Z,1.77
2019-05-16T09:03:32.268Z,2.53
2019-05-16T09:06:15.219Z,2.60
2019-05-16T09:10:41.403Z,2.37
2019-05-16T09:13:48.177Z,2.33
2019-05-16T09:16:37.276Z,2.27
2019-05-16T09:19:27.799Z,3.47
2019-05-16T09:22:18.219Z,1.93
2019-05-16T09:28:22.598Z,3.50
2019-05-16T09:31:11.487Z,3.20
2019-05-16T09:34:00.352Z,2.07
2019-05-16T09:36:49.237Z,2.20
2019-05-16T09:39:18.886Z,3.50
2019-05-16T09:42:08.312Z,2.20
2019-05-16T09:44:58.162Z,2.40
2019-05-16T09:47:48.497Z,2.53
2019-05-16T09:50:37.976Z,2.10
2019-05-16T09:53:28.202Z,2.43
2019-05-16T09:56:17.065Z,4.30
2019-05-16T09:59:06.915Z,2.87
2019-05-16T10:01:57.171Z,2.00
2019-05-16T10:04:47.471Z,2.70
2019-05-16T10:07:30.933Z,1.67
2019-05-16T10:10:00.434Z,2.63
2019-05-16T10:12:49.263Z,4.60
2019-05-16T10:15:38.159Z,2.90
2019-05-16T10:18:27.736Z,4.80
2019-05-16T10:21:20.490Z,3.83
2019-05-16T10:24:08.241Z,3.00
2019-05-16T10:26:57.270Z,5.20
2019-05-16T10:29:48.489Z,5.23
2019-05-16T10:32:39.731Z,3.57
2019-05-16T10:35:30.160Z,2.50
2019-05-16T10:38:19.534Z,2.10
2019-05-16T10:41:08.356Z,3.00
2019-05-16T10:43:57.240Z,3.73
2019-05-16T10:46:47.974Z,2.10
2019-05-16T10:49:38.773Z,3.60
2019-05-16T10:52:27.281Z,3.10
2019-05-16T10:55:17.738Z,4.13
2019-05-16T10:58:07.533Z,2.43
2019-05-16T11:01:15.614Z,3.43
2019-05-16T11:03:49.190Z,3.03
2019-05-16T11:06:31.732Z,5.23
2019-05-16T11:09:20.577Z,2.50
2019-05-16T11:12:09.433Z,3.67
2019-05-16T11:14:58.300Z,3.73
2019-05-16T11:17:47.112Z,3.20
2019-05-16T11:20:37.402Z,11.43
2019-05-16T11:23:30.855Z,3.40
2019-05-16T11:26:17.077Z,4.20
2019-05-16T11:29:07.446Z,2.50
2019-05-16T11:31:57.392Z,8.00
2019-05-16T11:34:47.952Z,4.10
2019-05-16T11:37:37.872Z,2.20
2019-05-16T11:40:30.198Z,3.80
2019-05-16T11:43:21.734Z,3.37
2019-05-16T11:46:09.410Z,3.33
2019-05-16T11:48:58.264Z,3.13
2019-05-16T11:51:47.428Z,5.13
2019-05-16T11:54:37.645Z,2.90
2019-05-16T11:57:26.474Z,2.40
2019-05-16T12:00:37.241Z,2.73
2019-05-16T12:03:28.237Z,2.80
2019-05-16T12:06:11.352Z,3.80
2019-05-16T12:09:00.173Z,3.33
2019-05-16T12:11:49.031Z,2.43
2019-05-16T12:14:37.888Z,2.67
2019-05-16T12:17:27.991Z,5.03
2019-05-16T12:20:17.523Z,3.40
2019-05-16T12:23:07.971Z,3.93
2019-05-16T12:25:59.948Z,4.40
2019-05-16T12:28:47.557Z,2.57
2019-05-16T12:31:37.352Z,2.67
2019-05-16T12:34:27.087Z,2.43
2019-05-16T12:37:15.915Z,5.80
2019-05-16T12:40:26.837Z,2.80
2019-05-16T12:43:17.967Z,3.57
2019-05-16T12:46:07.527Z,2.80
2019-05-16T12:48:57.702Z,3.10
2019-05-16T12:51:47.920Z,4.70
2019-05-16T12:54:37.088Z,3.50
2019-05-16T12:57:31.125Z,4.43
2019-05-16T13:03:33.033Z,4.10
2019-05-16T13:06:17.104Z,2.40
2019-05-16T13:09:26.537Z,3.10
2019-05-16T13:12:17.496Z,3.20
2019-05-16T13:18:02.309Z,2.87
2019-05-16T13:20:51.214Z,2.53
2019-05-16T13:23:40.026Z,4.10
2019-05-16T13:26:28.866Z,3.10
2019-05-16T13:29:18.230Z,3.17
2019-05-16T13:32:08.333Z,6.30
2019-05-16T13:34:58.961Z,2.70
2019-05-16T13:37:48.008Z,2.50
2019-05-16T13:40:36.882Z,2.90
2019-05-16T13:43:26.995Z,3.80
2019-05-16T13:46:17.223Z,3.67
2019-05-16T13:49:07.366Z,3.30
2019-05-16T13:51:57.554Z,6.80
2019-05-16T13:54:46.413Z,3.07
2019-05-16T13:57:37.384Z,3.23
2019-05-16T14:00:27.901Z,4.13
2019-05-16T14:03:17.922Z,6.53
2019-05-16T14:06:07.441Z,4.40
2019-05-16T14:08:56.787Z,4.20
2019-05-16T14:11:46.979Z,8.33
2019-05-16T14:14:41.971Z,3.47
2019-05-16T14:17:27.534Z,4.33
2019-05-16T14:23:32.360Z,4.70
2019-05-16T14:26:21.200Z,5.50
2019-05-16T14:29:10.032Z,5.90
2019-05-16T14:31:58.856Z,4.00
2019-05-16T14:34:51.321Z,3.93
2019-05-16T14:37:38.457Z,3.13
2019-05-16T14:40:27.790Z,3.93
2019-05-16T14:43:17.795Z,2.90
2019-05-16T14:46:09.375Z,3.73
2019-05-16T14:48:57.434Z,4.80
2019-05-16T14:51:47.736Z,4.53
2019-05-16T14:54:37.707Z,4.70
2019-05-16T14:57:27.543Z,3.40
2019-05-16T15:03:31.740Z,4.83
2019-05-16T15:06:20.593Z,5.73
2019-05-16T15:09:03.714Z,3.00
2019-05-16T15:11:52.568Z,3.80
2019-05-16T15:14:41.390Z,4.90
2019-05-16T15:17:30.011Z,2.43
2019-05-16T15:20:19.035Z,4.30
2019-05-16T15:23:07.965Z,3.20
2019-05-16T15:25:56.811Z,6.40
2019-05-16T15:28:47.959Z,3.40
2019-05-16T15:31:39.435Z,3.20
2019-05-16T15:34:29.942Z,3.00
2019-05-16T15:37:17.560Z,3.10
2019-05-16T15:40:27.295Z,4.97
2019-05-16T15:43:17.997Z,3.53
2019-05-16T15:49:37.578Z,4.23
2019-05-16T15:55:54.225Z,3.93
2019-05-16T15:58:43.091Z,3.67
2019-05-16T16:01:31.942Z,3.10
2019-05-16T16:04:22.754Z,2.50
2019-05-16T16:07:07.402Z,4.73
2019-05-16T16:09:57.524Z,3.80
2019-05-16T16:12:47.749Z,5.80
2019-05-16T16:18:51.588Z,3.40
2019-05-16T16:21:40.498Z,3.57
2019-05-16T16:24:29.409Z,2.63
2019-05-16T16:27:18.237Z,3.40
2019-05-16T16:33:27.316Z,3.50
2019-05-16T16:36:13.489Z,4.93
2019-05-16T16:39:02.360Z,5.30
2019-05-16T16:41:51.212Z,6.73
2019-05-16T16:44:40.069Z,5.57
2019-05-16T16:47:29.024Z,4.33
2019-05-16T16:50:18.013Z,4.67
2019-05-16T16:53:07.268Z,4.07
2019-05-16T16:55:57.501Z,4.53
2019-05-16T16:58:46.713Z,6.87
2019-05-16T17:01:37.523Z,7.10
2019-05-16T17:04:27.451Z,6.03
2019-05-16T17:07:09.093Z,4.50
2019-05-16T17:09:50.616Z,7.27
2019-05-16T17:12:42.328Z,6.67
2019-05-16T17:15:30.222Z,4.80
2019-05-16T17:18:19.056Z,6.00
2019-05-16T17:21:08.228Z,5.77
2019-05-16T17:24:01.022Z,5.80
2019-05-16T17:26:49.932Z,5.53
2019-05-16T17:29:38.781Z,5.83
2019-05-16T17:32:27.930Z,5.27
2019-05-16T17:38:31.762Z,6.73
2019-05-16T17:41:20.421Z,4.70
2019-05-16T17:44:09.320Z,5.70
2019-05-16T17:46:58.190Z,5.83
2019-05-16T17:49:47.328Z,6.57
2019-05-16T17:52:36.896Z,4.37
2019-05-16T17:55:27.054Z,6.50
2019-05-16T17:58:16.500Z,5.50
2019-05-16T18:04:17.234Z,4.00
2019-05-16T18:07:07.345Z,6.37
2019-05-16T18:09:50.129Z,6.40
2019-05-16T18:12:38.977Z,4.30
2019-05-16T18:15:27.917Z,4.90
2019-05-16T18:18:17.666Z,4.43
2019-05-16T18:21:07.485Z,7.07
2019-05-16T18:23:56.293Z,4.73
2019-05-16T18:26:26.844Z,4.03
2019-05-16T18:29:16.488Z,4.00
2019-05-16T18:32:06.947Z,4.10
2019-05-16T18:34:56.410Z,6.30
2019-05-16T18:37:46.609Z,4.70
2019-05-16T18:40:36.778Z,6.30
2019-05-16T18:43:27.089Z,7.00
2019-05-16T18:46:16.670Z,4.80
2019-05-16T18:49:07.248Z,5.27
2019-05-16T18:51:57.040Z,4.13
2019-05-16T18:54:46.880Z,5.40
2019-05-16T18:57:37.720Z,4.03
2019-05-16T19:00:26.794Z,5.33
2019-05-16T19:03:17.205Z,4.53
2019-05-16T19:06:07.755Z,4.40
2019-05-16T19:08:50.021Z,4.80
2019-05-16T19:11:38.894Z,6.20
2019-05-16T19:14:27.798Z,9.53
2019-05-16T19:17:22.197Z,6.07
2019-05-16T19:23:22.403Z,5.03
2019-05-16T19:26:11.346Z,5.57
2019-05-16T19:29:00.259Z,4.90
2019-05-16T19:31:50.614Z,5.40
2019-05-16T19:34:39.683Z,4.97
2019-05-16T19:37:28.526Z,4.85
2019-05-16T19:40:40.508Z,4.50
2019-05-16T19:43:28.849Z,5.57
2019-05-16T19:46:17.767Z,7.13
2019-05-16T19:49:06.642Z,6.07
2019-05-16T19:51:56.598Z,4.95
2019-05-16T19:54:47.112Z,7.67
2019-05-16T19:57:37.386Z,5.05
2019-05-16T20:00:27.359Z,6.47
2019-05-16T20:03:16.728Z,4.27
2019-05-16T20:06:07.567Z,4.80
2019-05-16T20:08:50.044Z,8.10
2019-05-16T20:11:38.923Z,5.97
2019-05-16T20:14:27.869Z,10.72
2019-05-16T20:17:19.210Z,6.90
2019-05-16T20:23:22.630Z,6.97
2019-05-16T20:26:11.551Z,6.90
2019-05-16T20:29:00.385Z,6.78
2019-05-16T20:31:49.301Z,9.85
2019-05-16T20:34:38.128Z,10.50
2019-05-16T20:37:26.990Z,7.90
2019-05-16T20:40:17.290Z,7.33
2019-05-16T20:43:07.732Z,10.80
2019-05-16T20:45:58.839Z,7.90
2019-05-16T20:48:47.766Z,8.83
2019-05-16T20:51:37.599Z,10.75
2019-05-16T20:54:27.182Z,11.28
2019-05-16T20:57:17.261Z,10.13
2019-05-16T21:00:26.831Z,10.95
2019-05-16T21:03:16.740Z,10.32
2019-05-16T21:06:08.464Z,13.18
2019-05-16T21:08:57.510Z,10.98
2019-05-16T21:11:49.952Z,12.15
2019-05-16T21:14:37.480Z,9.25
2019-05-16T21:17:33.586Z,10.88
2019-05-16T21:20:22.491Z,10.53
2019-05-16T21:23:11.339Z,9.43
2019-05-16T21:26:00.207Z,11.57
2019-05-16T21:28:49.040Z,8.48
2019-05-16T21:31:37.872Z,9.73
2019-05-16T21:34:27.268Z,9.38
2019-05-16T21:37:20.199Z,9.38
2019-05-16T21:40:08.306Z,9.38
2019-05-16T21:42:58.832Z,8.60
2019-05-16T21:45:47.673Z,10.98
2019-05-16T21:48:36.994Z,8.63
2019-05-16T21:51:27.094Z,10.00
2019-05-16T21:54:15.962Z,11.70
2019-05-16T21:57:04.843Z,8.23
2019-05-16T21:59:53.770Z,9.33
2019-05-16T22:02:42.585Z,9.65
2019-05-16T22:05:31.493Z,9.83
2019-05-16T22:08:20.419Z,10.03
2019-05-16T22:11:02.707Z,7.97
2019-05-16T22:13:51.525Z,9.50
2019-05-16T22:19:36.440Z,10.40
2019-05-16T22:22:27.577Z,14.00
2019-05-16T22:25:16.729Z,11.83
2019-05-16T22:28:07.352Z,11.45
2019-05-16T22:30:58.466Z,13.38
2019-05-16T22:33:48.288Z,10.20
2019-05-16T22:36:37.277Z,12.65
2019-05-16T22:42:37.503Z,11.15
2019-05-16T22:45:27.121Z,13.05
2019-05-16T22:48:17.399Z,13.95
2019-05-16T22:51:07.443Z,15.08
2019-05-16T22:53:58.499Z,17.15
2019-05-16T22:56:46.927Z,13.70
2019-05-16T22:59:35.776Z,14.05
2019-05-16T23:02:24.602Z,13.10
2019-05-16T23:05:13.464Z,15.45
2019-05-16T23:08:06.098Z,14.53
2019-05-16T23:10:46.275Z,13.25
2019-05-16T23:13:35.104Z,13.45
2019-05-16T23:16:26.520Z,13.48
2019-05-16T23:19:14.523Z,12.63
2019-05-16T23:22:03.445Z,13.83
2019-05-16T23:25:11.331Z,14.83
2019-05-16T23:28:00.268Z,13.58
2019-05-16T23:30:49.119Z,13.93
2019-05-16T23:33:37.964Z,16.77
2019-05-16T23:36:26.813Z,14.68
2019-05-16T23:39:15.640Z,16.45
2019-05-16T23:42:06.362Z,13.62
2019-05-16T23:44:56.735Z,14.55
2019-05-16T23:47:47.131Z,15.40
2019-05-16T23:50:36.718Z,17.25
2019-05-16T23:53:26.901Z,13.35
2019-05-16T23:56:16.688Z,13.60
2019-05-16T23:59:06.716Z,14.93
